Cobb, Georgia
Current Conditions -  °F | °C
As of 5:15 PM on Thursday 18 Dec 2014 (Local Time) from KCKF Reporting Station
Scattered Clouds Scattered Clouds  
Wind Chill: 62°   Ceiling: Unl
Heat Index: 62°   Visibility: 10mi
Dew Point: 28°   Wind: 3mph
Humidity: 27%   Direction: 270°W
Pressure: 30.1"   Gusts: NA
Location:  31.96°N, 83.99°W
Report Text: KCKF 182215Z AUTO 27003KT 10SM SCT060 17/M02 A3010 RMK AO2 T01691022
Loading
Personal Weather Stations






























Interactive Weather Map New forecast layout! Learn more

10-Day Weather Forecast

Advertisements
Track Severe Weather on mobile